sensor_id;sensor_type;location;lat;lon;timestamp;P1;durP1;ratioP1;P2;durP2;ratioP2
18804;SDS011;9530;48.930;9.526;2022-09-01T00:01:57;7.43;;;5.90;;
18804;SDS011;9530;48.930;9.526;2022-09-01T00:04:32;9.30;;;6.03;;
18804;SDS011;9530;48.930;9.526;2022-09-01T00:07:02;7.70;;;6.40;;
18804;SDS011;9530;48.930;9.526;2022-09-01T00:09:29;6.83;;;5.97;;
18804;SDS011;9530;48.930;9.526;2022-09-01T00:11:56;8.23;;;5.53;;
18804;SDS011;9530;48.930;9.526;2022-09-01T00:14:25;10.57;;;6.40;;
18804;SDS011;9530;48.930;9.526;2022-09-01T00:16:54;6.87;;;5.73;;
18804;SDS011;9530;48.930;9.526;2022-09-01T00:19:21;10.27;;;6.20;;
18804;SDS011;9530;48.930;9.526;2022-09-01T00:21:48;6.27;;;5.63;;
18804;SDS011;9530;48.930;9.526;2022-09-01T00:24:16;8.93;;;6.23;;
18804;SDS011;9530;48.930;9.526;2022-09-01T00:26:43;7.53;;;6.30;;
18804;SDS011;9530;48.930;9.526;2022-09-01T00:29:10;11.37;;;6.90;;
18804;SDS011;9530;48.930;9.526;2022-09-01T00:31:37;7.37;;;6.10;;
18804;SDS011;9530;48.930;9.526;2022-09-01T00:34:05;9.00;;;6.50;;
18804;SDS011;9530;48.930;9.526;2022-09-01T00:36:32;7.33;;;6.33;;
18804;SDS011;9530;48.930;9.526;2022-09-01T00:38:59;9.90;;;7.00;;
18804;SDS011;9530;48.930;9.526;2022-09-01T00:41:27;8.20;;;6.83;;
18804;SDS011;9530;48.930;9.526;2022-09-01T00:43:55;9.57;;;6.87;;
18804;SDS011;9530;48.930;9.526;2022-09-01T00:46:25;7.37;;;6.40;;
18804;SDS011;9530;48.930;9.526;2022-09-01T00:48:53;7.23;;;6.53;;
18804;SDS011;9530;48.930;9.526;2022-09-01T00:51:23;7.87;;;6.13;;
18804;SDS011;9530;48.930;9.526;2022-09-01T00:53:50;7.90;;;6.70;;
18804;SDS011;9530;48.930;9.526;2022-09-01T00:56:20;9.10;;;7.27;;
18804;SDS011;9530;48.930;9.526;2022-09-01T00:58:47;8.33;;;6.93;;
18804;SDS011;9530;48.930;9.526;2022-09-01T01:01:16;7.23;;;6.37;;
18804;SDS011;9530;48.930;9.526;2022-09-01T01:03:43;7.77;;;7.00;;
18804;SDS011;9530;48.930;9.526;2022-09-01T01:06:11;7.73;;;6.53;;
18804;SDS011;9530;48.930;9.526;2022-09-01T01:08:43;8.57;;;6.47;;
18804;SDS011;9530;48.930;9.526;2022-09-01T01:11:20;7.27;;;5.97;;
18804;SDS011;9530;48.930;9.526;2022-09-01T01:13:49;7.20;;;6.30;;
18804;SDS011;9530;48.930;9.526;2022-09-01T01:16:16;6.73;;;5.90;;
18804;SDS011;9530;48.930;9.526;2022-09-01T01:18:44;8.47;;;6.40;;
18804;SDS011;9530;48.930;9.526;2022-09-01T01:21:14;8.00;;;5.90;;
18804;SDS011;9530;48.930;9.526;2022-09-01T01:24:01;7.27;;;5.90;;
18804;SDS011;9530;48.930;9.526;2022-09-01T01:26:33;7.67;;;5.40;;
18804;SDS011;9530;48.930;9.526;2022-09-01T01:29:01;6.70;;;6.00;;
18804;SDS011;9530;48.930;9.526;2022-09-01T01:31:30;8.67;;;6.03;;
18804;SDS011;9530;48.930;9.526;2022-09-01T01:33:59;8.00;;;5.57;;
18804;SDS011;9530;48.930;9.526;2022-09-01T01:36:27;6.70;;;6.00;;
18804;SDS011;9530;48.930;9.526;2022-09-01T01:38:56;8.23;;;6.20;;
18804;SDS011;9530;48.930;9.526;2022-09-01T01:41:26;7.60;;;5.97;;
18804;SDS011;9530;48.930;9.526;2022-09-01T01:43:55;7.63;;;6.07;;
18804;SDS011;9530;48.930;9.526;2022-09-01T01:46:22;7.23;;;5.93;;
18804;SDS011;9530;48.930;9.526;2022-09-01T01:48:50;7.63;;;6.83;;
18804;SDS011;9530;48.930;9.526;2022-09-01T01:51:18;8.73;;;7.27;;
18804;SDS011;9530;48.930;9.526;2022-09-01T01:53:45;8.03;;;6.70;;
18804;SDS011;9530;48.930;9.526;2022-09-01T01:56:16;9.87;;;6.90;;
18804;SDS011;9530;48.930;9.526;2022-09-01T01:58:43;7.63;;;6.67;;
18804;SDS011;9530;48.930;9.526;2022-09-01T02:01:12;8.80;;;7.43;;
18804;SDS011;9530;48.930;9.526;2022-09-01T02:03:41;8.27;;;7.47;;
18804;SDS011;9530;48.930;9.526;2022-09-01T02:06:09;11.23;;;10.00;;
18804;SDS011;9530;48.930;9.526;2022-09-01T02:08:37;11.73;;;8.57;;
18804;SDS011;9530;48.930;9.526;2022-09-01T02:11:05;9.30;;;8.27;;
18804;SDS011;9530;48.930;9.526;2022-09-01T02:13:32;11.27;;;10.07;;
18804;SDS011;9530;48.930;9.526;2022-09-01T02:16:01;11.83;;;10.30;;
18804;SDS011;9530;48.930;9.526;2022-09-01T02:18:31;9.23;;;8.23;;
18804;SDS011;9530;48.930;9.526;2022-09-01T02:20:59;9.77;;;8.77;;
18804;SDS011;9530;48.930;9.526;2022-09-01T02:23:27;12.00;;;9.20;;
18804;SDS011;9530;48.930;9.526;2022-09-01T02:25:54;12.90;;;10.00;;
18804;SDS011;9530;48.930;9.526;2022-09-01T02:28:24;11.60;;;9.13;;
18804;SDS011;9530;48.930;9.526;2022-09-01T02:30:52;11.23;;;9.10;;
18804;SDS011;9530;48.930;9.526;2022-09-01T02:33:21;10.13;;;8.10;;
18804;SDS011;9530;48.930;9.526;2022-09-01T02:35:51;11.17;;;9.47;;
18804;SDS011;9530;48.930;9.526;2022-09-01T02:38:19;9.97;;;8.87;;
18804;SDS011;9530;48.930;9.526;2022-09-01T02:40:54;11.23;;;9.57;;
18804;SDS011;9530;48.930;9.526;2022-09-01T02:43:21;10.20;;;9.20;;
18804;SDS011;9530;48.930;9.526;2022-09-01T02:45:51;11.47;;;9.70;;
18804;SDS011;9530;48.930;9.526;2022-09-01T02:48:23;9.97;;;8.57;;
18804;SDS011;9530;48.930;9.526;2022-09-01T02:50:52;11.63;;;9.80;;
18804;SDS011;9530;48.930;9.526;2022-09-01T02:53:23;10.70;;;9.60;;
18804;SDS011;9530;48.930;9.526;2022-09-01T02:55:50;12.50;;;9.90;;
18804;SDS011;9530;48.930;9.526;2022-09-01T02:58:17;12.60;;;9.77;;
18804;SDS011;9530;48.930;9.526;2022-09-01T03:00:45;11.83;;;10.63;;
18804;SDS011;9530;48.930;9.526;2022-09-01T03:03:18;12.50;;;10.80;;
18804;SDS011;9530;48.930;9.526;2022-09-01T03:05:46;13.63;;;10.83;;
18804;SDS011;9530;48.930;9.526;2022-09-01T03:08:14;12.20;;;10.03;;
18804;SDS011;9530;48.930;9.526;2022-09-01T03:10:42;13.77;;;11.33;;
18804;SDS011;9530;48.930;9.526;2022-09-01T03:13:13;13.27;;;11.10;;
18804;SDS011;9530;48.930;9.526;2022-09-01T03:15:40;15.30;;;11.80;;
18804;SDS011;9530;48.930;9.526;2022-09-01T03:18:08;12.07;;;10.83;;
18804;SDS011;9530;48.930;9.526;2022-09-01T03:20:36;13.27;;;10.30;;
18804;SDS011;9530;48.930;9.526;2022-09-01T03:23:04;14.40;;;12.03;;
18804;SDS011;9530;48.930;9.526;2022-09-01T03:25:34;13.30;;;11.07;;
18804;SDS011;9530;48.930;9.526;2022-09-01T03:28:02;12.73;;;11.43;;
18804;SDS011;9530;48.930;9.526;2022-09-01T03:30:29;12.97;;;11.13;;
18804;SDS011;9530;48.930;9.526;2022-09-01T03:32:57;11.53;;;10.33;;
18804;SDS011;9530;48.930;9.526;2022-09-01T03:35:25;15.57;;;11.80;;
18804;SDS011;9530;48.930;9.526;2022-09-01T03:37:52;16.13;;;12.70;;
18804;SDS011;9530;48.930;9.526;2022-09-01T03:40:23;13.33;;;11.40;;
18804;SDS011;9530;48.930;9.526;2022-09-01T03:42:53;14.53;;;12.00;;
18804;SDS011;9530;48.930;9.526;2022-09-01T03:45:20;14.30;;;12.80;;
18804;SDS011;9530;48.930;9.526;2022-09-01T03:47:49;14.03;;;11.43;;
18804;SDS011;9530;48.930;9.526;2022-09-01T03:50:17;18.40;;;14.47;;
18804;SDS011;9530;48.930;9.526;2022-09-01T03:52:45;17.23;;;14.33;;
18804;SDS011;9530;48.930;9.526;2022-09-01T03:55:13;13.80;;;12.40;;
18804;SDS011;9530;48.930;9.526;2022-09-01T03:57:42;21.33;;;15.43;;
18804;SDS011;9530;48.930;9.526;2022-09-01T04:00:13;14.60;;;13.10;;
18804;SDS011;9530;48.930;9.526;2022-09-01T04:02:47;17.87;;;14.87;;
18804;SDS011;9530;48.930;9.526;2022-09-01T04:05:15;17.97;;;14.17;;
18804;SDS011;9530;48.930;9.526;2022-09-01T04:07:45;18.20;;;15.57;;
18804;SDS011;9530;48.930;9.526;2022-09-01T04:10:12;19.67;;;16.27;;
18804;SDS011;9530;48.930;9.526;2022-09-01T04:12:39;23.93;;;17.60;;
18804;SDS011;9530;48.930;9.526;2022-09-01T04:15:07;21.97;;;17.87;;
18804;SDS011;9530;48.930;9.526;2022-09-01T04:17:35;21.77;;;17.17;;
18804;SDS011;9530;48.930;9.526;2022-09-01T04:20:20;22.40;;;17.73;;
18804;SDS011;9530;48.930;9.526;2022-09-01T04:22:47;20.97;;;17.67;;
18804;SDS011;9530;48.930;9.526;2022-09-01T04:25:15;22.00;;;17.50;;
18804;SDS011;9530;48.930;9.526;2022-09-01T04:27:47;23.23;;;18.27;;
18804;SDS011;9530;48.930;9.526;2022-09-01T04:30:14;21.50;;;17.43;;
18804;SDS011;9530;48.930;9.526;2022-09-01T04:32:42;22.07;;;17.40;;
18804;SDS011;9530;48.930;9.526;2022-09-01T04:35:11;21.90;;;16.87;;
18804;SDS011;9530;48.930;9.526;2022-09-01T04:37:40;22.17;;;15.43;;
18804;SDS011;9530;48.930;9.526;2022-09-01T04:40:08;21.73;;;17.23;;
18804;SDS011;9530;48.930;9.526;2022-09-01T04:42:39;20.30;;;16.53;;
18804;SDS011;9530;48.930;9.526;2022-09-01T04:45:07;21.03;;;16.37;;
18804;SDS011;9530;48.930;9.526;2022-09-01T04:47:37;17.90;;;15.50;;
18804;SDS011;9530;48.930;9.526;2022-09-01T04:50:08;19.50;;;16.20;;
18804;SDS011;9530;48.930;9.526;2022-09-01T04:52:38;18.20;;;14.33;;
18804;SDS011;9530;48.930;9.526;2022-09-01T04:55:07;21.13;;;16.80;;
18804;SDS011;9530;48.930;9.526;2022-09-01T04:57:41;19.13;;;16.10;;
18804;SDS011;9530;48.930;9.526;2022-09-01T05:00:12;19.23;;;15.63;;
18804;SDS011;9530;48.930;9.526;2022-09-01T05:02:46;19.30;;;15.00;;
18804;SDS011;9530;48.930;9.526;2022-09-01T05:05:17;19.37;;;15.83;;
18804;SDS011;9530;48.930;9.526;2022-09-01T05:07:44;19.10;;;15.27;;
18804;SDS011;9530;48.930;9.526;2022-09-01T05:10:16;16.73;;;14.57;;
18804;SDS011;9530;48.930;9.526;2022-09-01T05:12:43;18.37;;;14.93;;
18804;SDS011;9530;48.930;9.526;2022-09-01T05:15:10;16.43;;;14.23;;
18804;SDS011;9530;48.930;9.526;2022-09-01T05:17:37;16.70;;;14.33;;
18804;SDS011;9530;48.930;9.526;2022-09-01T05:20:05;14.67;;;13.03;;
18804;SDS011;9530;48.930;9.526;2022-09-01T05:22:35;16.33;;;13.73;;
18804;SDS011;9530;48.930;9.526;2022-09-01T05:25:05;19.53;;;14.20;;
18804;SDS011;9530;48.930;9.526;2022-09-01T05:27:38;15.80;;;13.43;;
18804;SDS011;9530;48.930;9.526;2022-09-01T05:30:06;16.17;;;13.03;;
18804;SDS011;9530;48.930;9.526;2022-09-01T05:32:34;17.47;;;14.17;;
18804;SDS011;9530;48.930;9.526;2022-09-01T05:35:04;14.10;;;12.50;;
18804;SDS011;9530;48.930;9.526;2022-09-01T05:37:32;14.97;;;12.70;;
18804;SDS011;9530;48.930;9.526;2022-09-01T05:40:01;16.57;;;12.00;;
18804;SDS011;9530;48.930;9.526;2022-09-01T05:42:29;13.87;;;11.73;;
18804;SDS011;9530;48.930;9.526;2022-09-01T05:44:56;13.60;;;11.80;;
18804;SDS011;9530;48.930;9.526;2022-09-01T05:47:24;12.87;;;11.37;;
18804;SDS011;9530;48.930;9.526;2022-09-01T05:49:51;12.20;;;10.93;;
18804;SDS011;9530;48.930;9.526;2022-09-01T05:52:22;13.40;;;11.50;;
18804;SDS011;9530;48.930;9.526;2022-09-01T05:54:50;11.10;;;9.90;;
18804;SDS011;9530;48.930;9.526;2022-09-01T05:57:18;11.90;;;10.53;;
18804;SDS011;9530;48.930;9.526;2022-09-01T05:59:45;11.80;;;10.60;;
18804;SDS011;9530;48.930;9.526;2022-09-01T06:02:18;11.50;;;10.30;;
18804;SDS011;9530;48.930;9.526;2022-09-01T06:04:45;12.23;;;10.93;;
18804;SDS011;9530;48.930;9.526;2022-09-01T06:07:13;12.73;;;10.60;;
18804;SDS011;9530;48.930;9.526;2022-09-01T06:09:42;11.40;;;9.80;;
18804;SDS011;9530;48.930;9.526;2022-09-01T06:12:12;12.13;;;9.97;;
18804;SDS011;9530;48.930;9.526;2022-09-01T06:14:47;10.40;;;9.40;;
18804;SDS011;9530;48.930;9.526;2022-09-01T06:17:15;10.17;;;9.17;;
18804;SDS011;9530;48.930;9.526;2022-09-01T06:19:46;10.57;;;9.47;;
18804;SDS011;9530;48.930;9.526;2022-09-01T06:22:13;10.60;;;9.17;;
18804;SDS011;9530;48.930;9.526;2022-09-01T06:24:41;10.60;;;9.27;;
18804;SDS011;9530;48.930;9.526;2022-09-01T06:27:07;9.27;;;8.30;;
18804;SDS011;9530;48.930;9.526;2022-09-01T06:29:35;9.60;;;8.50;;
18804;SDS011;9530;48.930;9.526;2022-09-01T06:32:05;10.47;;;8.60;;
18804;SDS011;9530;48.930;9.526;2022-09-01T06:34:33;13.27;;;10.10;;
18804;SDS011;9530;48.930;9.526;2022-09-01T06:37:00;11.20;;;10.00;;
18804;SDS011;9530;48.930;9.526;2022-09-01T06:39:27;13.20;;;10.87;;
18804;SDS011;9530;48.930;9.526;2022-09-01T06:41:55;13.17;;;11.07;;
18804;SDS011;9530;48.930;9.526;2022-09-01T06:44:23;13.00;;;11.17;;
18804;SDS011;9530;48.930;9.526;2022-09-01T06:46:49;12.90;;;11.50;;
18804;SDS011;9530;48.930;9.526;2022-09-01T06:49:19;13.20;;;11.77;;
18804;SDS011;9530;48.930;9.526;2022-09-01T06:51:56;12.80;;;11.50;;
18804;SDS011;9530;48.930;9.526;2022-09-01T06:54:23;14.07;;;11.00;;
18804;SDS011;9530;48.930;9.526;2022-09-01T06:56:50;12.50;;;10.40;;
18804;SDS011;9530;48.930;9.526;2022-09-01T06:59:17;12.67;;;11.33;;
18804;SDS011;9530;48.930;9.526;2022-09-01T07:01:44;12.37;;;10.37;;
18804;SDS011;9530;48.930;9.526;2022-09-01T07:04:12;11.73;;;10.10;;
18804;SDS011;9530;48.930;9.526;2022-09-01T07:06:42;12.60;;;10.77;;
18804;SDS011;9530;48.930;9.526;2022-09-01T07:09:10;11.90;;;10.53;;
18804;SDS011;9530;48.930;9.526;2022-09-01T07:11:37;10.77;;;9.67;;
18804;SDS011;9530;48.930;9.526;2022-09-01T07:14:04;11.77;;;10.10;;
18804;SDS011;9530;48.930;9.526;2022-09-01T07:16:32;11.17;;;9.90;;
18804;SDS011;9530;48.930;9.526;2022-09-01T07:19:04;11.27;;;9.43;;
18804;SDS011;9530;48.930;9.526;2022-09-01T07:21:32;10.97;;;9.60;;
18804;SDS011;9530;48.930;9.526;2022-09-01T07:24:00;10.77;;;9.23;;
18804;SDS011;9530;48.930;9.526;2022-09-01T07:26:28;10.67;;;9.57;;
18804;SDS011;9530;48.930;9.526;2022-09-01T07:28:56;10.00;;;8.73;;
18804;SDS011;9530;48.930;9.526;2022-09-01T07:31:24;10.37;;;8.97;;
18804;SDS011;9530;48.930;9.526;2022-09-01T07:33:53;10.13;;;9.07;;
18804;SDS011;9530;48.930;9.526;2022-09-01T07:36:23;9.33;;;8.27;;
18804;SDS011;9530;48.930;9.526;2022-09-01T07:38:50;9.83;;;7.70;;
18804;SDS011;9530;48.930;9.526;2022-09-01T07:41:20;7.80;;;7.00;;
18804;SDS011;9530;48.930;9.526;2022-09-01T07:43:49;6.60;;;6.00;;
18804;SDS011;9530;48.930;9.526;2022-09-01T07:46:17;6.63;;;5.83;;
18804;SDS011;9530;48.930;9.526;2022-09-01T07:48:44;5.40;;;4.90;;
18804;SDS011;9530;48.930;9.526;2022-09-01T07:51:13;5.70;;;5.20;;
18804;SDS011;9530;48.930;9.526;2022-09-01T07:53:43;6.43;;;5.60;;
18804;SDS011;9530;48.930;9.526;2022-09-01T07:56:13;7.57;;;5.27;;
18804;SDS011;9530;48.930;9.526;2022-09-01T07:58:44;6.47;;;5.20;;
18804;SDS011;9530;48.930;9.526;2022-09-01T08:01:12;5.50;;;4.90;;
18804;SDS011;9530;48.930;9.526;2022-09-01T08:03:41;6.67;;;6.00;;
18804;SDS011;9530;48.930;9.526;2022-09-01T08:06:09;5.30;;;4.80;;
18804;SDS011;9530;48.930;9.526;2022-09-01T08:08:37;4.67;;;4.20;;
18804;SDS011;9530;48.930;9.526;2022-09-01T08:11:05;4.87;;;4.00;;
18804;SDS011;9530;48.930;9.526;2022-09-01T08:13:33;5.67;;;3.73;;
18804;SDS011;9530;48.930;9.526;2022-09-01T08:16:03;3.97;;;3.50;;
18804;SDS011;9530;48.930;9.526;2022-09-01T08:18:31;3.80;;;3.37;;
18804;SDS011;9530;48.930;9.526;2022-09-01T08:20:58;4.13;;;3.63;;
18804;SDS011;9530;48.930;9.526;2022-09-01T08:23:25;4.00;;;3.57;;
18804;SDS011;9530;48.930;9.526;2022-09-01T08:25:52;4.03;;;3.30;;
18804;SDS011;9530;48.930;9.526;2022-09-01T08:28:19;4.50;;;3.47;;
18804;SDS011;9530;48.930;9.526;2022-09-01T08:30:46;3.77;;;3.00;;
18804;SDS011;9530;48.930;9.526;2022-09-01T08:33:14;4.10;;;3.57;;
18804;SDS011;9530;48.930;9.526;2022-09-01T08:35:42;4.67;;;3.50;;
18804;SDS011;9530;48.930;9.526;2022-09-01T08:38:11;3.50;;;3.20;;
18804;SDS011;9530;48.930;9.526;2022-09-01T08:40:39;4.17;;;3.77;;
18804;SDS011;9530;48.930;9.526;2022-09-01T08:43:09;4.43;;;3.17;;
18804;SDS011;9530;48.930;9.526;2022-09-01T08:45:43;3.80;;;3.23;;
18804;SDS011;9530;48.930;9.526;2022-09-01T08:48:17;3.20;;;2.90;;
18804;SDS011;9530;48.930;9.526;2022-09-01T08:50:46;3.40;;;3.10;;
18804;SDS011;9530;48.930;9.526;2022-09-01T08:53:21;4.27;;;2.93;;
18804;SDS011;9530;48.930;9.526;2022-09-01T08:55:54;3.63;;;3.30;;
18804;SDS011;9530;48.930;9.526;2022-09-01T08:58:22;3.30;;;2.97;;
18804;SDS011;9530;48.930;9.526;2022-09-01T09:00:52;3.30;;;3.00;;
18804;SDS011;9530;48.930;9.526;2022-09-01T09:03:25;4.43;;;2.60;;
18804;SDS011;9530;48.930;9.526;2022-09-01T09:06:01;3.90;;;3.37;;
18804;SDS011;9530;48.930;9.526;2022-09-01T09:08:44;3.60;;;2.80;;
18804;SDS011;9530;48.930;9.526;2022-09-01T09:11:21;3.53;;;3.13;;
18804;SDS011;9530;48.930;9.526;2022-09-01T09:13:59;3.57;;;2.80;;
18804;SDS011;9530;48.930;9.526;2022-09-01T09:16:31;3.57;;;3.03;;
18804;SDS011;9530;48.930;9.526;2022-09-01T09:19:04;2.73;;;2.53;;
18804;SDS011;9530;48.930;9.526;2022-09-01T09:21:36;2.90;;;2.70;;
18804;SDS011;9530;48.930;9.526;2022-09-01T09:24:06;3.00;;;2.70;;
18804;SDS011;9530;48.930;9.526;2022-09-01T09:26:35;3.87;;;2.93;;
18804;SDS011;9530;48.930;9.526;2022-09-01T09:29:02;5.30;;;3.10;;
18804;SDS011;9530;48.930;9.526;2022-09-01T09:31:30;3.33;;;3.03;;
18804;SDS011;9530;48.930;9.526;2022-09-01T09:33:58;4.97;;;3.30;;
18804;SDS011;9530;48.930;9.526;2022-09-01T09:36:31;4.33;;;3.30;;
18804;SDS011;9530;48.930;9.526;2022-09-01T09:39:04;4.20;;;3.37;;
18804;SDS011;9530;48.930;9.526;2022-09-01T09:41:36;3.10;;;2.80;;
18804;SDS011;9530;48.930;9.526;2022-09-01T09:44:04;3.50;;;3.20;;
18804;SDS011;9530;48.930;9.526;2022-09-01T09:46:44;3.00;;;2.70;;
18804;SDS011;9530;48.930;9.526;2022-09-01T09:49:15;4.50;;;3.00;;
18804;SDS011;9530;48.930;9.526;2022-09-01T09:51:46;5.00;;;3.53;;
18804;SDS011;9530;48.930;9.526;2022-09-01T09:54:18;6.90;;;3.63;;
18804;SDS011;9530;48.930;9.526;2022-09-01T09:56:47;3.40;;;3.10;;
18804;SDS011;9530;48.930;9.526;2022-09-01T09:59:27;3.93;;;2.90;;
18804;SDS011;9530;48.930;9.526;2022-09-01T10:01:57;3.63;;;3.30;;
18804;SDS011;9530;48.930;9.526;2022-09-01T10:04:31;4.53;;;3.50;;
18804;SDS011;9530;48.930;9.526;2022-09-01T10:07:04;3.20;;;2.90;;
18804;SDS011;9530;48.930;9.526;2022-09-01T10:09:53;3.10;;;2.87;;
18804;SDS011;9530;48.930;9.526;2022-09-01T10:12:21;3.63;;;3.03;;
18804;SDS011;9530;48.930;9.526;2022-09-01T10:14:50;3.50;;;3.13;;
18804;SDS011;9530;48.930;9.526;2022-09-01T10:17:20;3.57;;;3.27;;
18804;SDS011;9530;48.930;9.526;2022-09-01T10:19:52;3.40;;;3.10;;
18804;SDS011;9530;48.930;9.526;2022-09-01T10:22:23;3.23;;;2.93;;
18804;SDS011;9530;48.930;9.526;2022-09-01T10:24:50;3.60;;;3.30;;
18804;SDS011;9530;48.930;9.526;2022-09-01T10:27:18;5.30;;;2.90;;
18804;SDS011;9530;48.930;9.526;2022-09-01T10:29:49;6.70;;;3.33;;
18804;SDS011;9530;48.930;9.526;2022-09-01T10:32:21;4.47;;;2.83;;
18804;SDS011;9530;48.930;9.526;2022-09-01T10:34:52;3.13;;;2.83;;
18804;SDS011;9530;48.930;9.526;2022-09-01T10:37:20;3.00;;;2.70;;
18804;SDS011;9530;48.930;9.526;2022-09-01T10:42:39;3.20;;;2.90;;
18804;SDS011;9530;48.930;9.526;2022-09-01T10:45:14;3.90;;;2.77;;
18804;SDS011;9530;48.930;9.526;2022-09-01T10:47:45;4.40;;;2.80;;
18804;SDS011;9530;48.930;9.526;2022-09-01T10:50:23;3.60;;;2.60;;
18804;SDS011;9530;48.930;9.526;2022-09-01T10:53:00;3.70;;;2.60;;
18804;SDS011;9530;48.930;9.526;2022-09-01T10:58:28;3.10;;;2.80;;
18804;SDS011;9530;48.930;9.526;2022-09-01T11:01:04;3.37;;;3.07;;
18804;SDS011;9530;48.930;9.526;2022-09-01T11:03:32;3.37;;;2.90;;
18804;SDS011;9530;48.930;9.526;2022-09-01T11:06:02;5.50;;;2.67;;
18804;SDS011;9530;48.930;9.526;2022-09-01T11:08:40;3.20;;;2.90;;
18804;SDS011;9530;48.930;9.526;2022-09-01T11:11:13;3.27;;;2.60;;
18804;SDS011;9530;48.930;9.526;2022-09-01T11:13:51;3.10;;;2.80;;
18804;SDS011;9530;48.930;9.526;2022-09-01T11:16:27;3.20;;;2.90;;
18804;SDS011;9530;48.930;9.526;2022-09-01T11:19:14;3.37;;;2.73;;
18804;SDS011;9530;48.930;9.526;2022-09-01T11:22:04;2.97;;;2.50;;
18804;SDS011;9530;48.930;9.526;2022-09-01T11:24:48;4.10;;;2.90;;
18804;SDS011;9530;48.930;9.526;2022-09-01T11:30:33;3.37;;;2.57;;
18804;SDS011;9530;48.930;9.526;2022-09-01T11:33:24;2.83;;;2.63;;
18804;SDS011;9530;48.930;9.526;2022-09-01T11:36:00;4.30;;;3.07;;
18804;SDS011;9530;48.930;9.526;2022-09-01T11:38:31;3.47;;;2.90;;
18804;SDS011;9530;48.930;9.526;2022-09-01T11:41:07;3.17;;;2.87;;
18804;SDS011;9530;48.930;9.526;2022-09-01T11:43:35;4.20;;;3.00;;
18804;SDS011;9530;48.930;9.526;2022-09-01T11:46:04;3.23;;;2.87;;
18804;SDS011;9530;48.930;9.526;2022-09-01T11:48:38;4.57;;;3.30;;
18804;SDS011;9530;48.930;9.526;2022-09-01T11:51:11;4.37;;;3.30;;
18804;SDS011;9530;48.930;9.526;2022-09-01T11:53:38;3.17;;;2.90;;
18804;SDS011;9530;48.930;9.526;2022-09-01T11:56:12;4.50;;;3.07;;
18804;SDS011;9530;48.930;9.526;2022-09-01T11:58:43;3.97;;;3.07;;
18804;SDS011;9530;48.930;9.526;2022-09-01T12:01:11;3.43;;;2.70;;
18804;SDS011;9530;48.930;9.526;2022-09-01T12:03:41;3.53;;;2.93;;
18804;SDS011;9530;48.930;9.526;2022-09-01T12:06:08;4.17;;;3.10;;
18804;SDS011;9530;48.930;9.526;2022-09-01T12:08:37;3.30;;;3.00;;
18804;SDS011;9530;48.930;9.526;2022-09-01T12:11:07;3.00;;;2.70;;
18804;SDS011;9530;48.930;9.526;2022-09-01T12:13:36;3.50;;;2.63;;
18804;SDS011;9530;48.930;9.526;2022-09-01T12:16:06;3.33;;;3.00;;
18804;SDS011;9530;48.930;9.526;2022-09-01T12:18:35;2.73;;;2.53;;
18804;SDS011;9530;48.930;9.526;2022-09-01T12:21:16;3.83;;;2.83;;
18804;SDS011;9530;48.930;9.526;2022-09-01T12:23:45;3.40;;;3.00;;
18804;SDS011;9530;48.930;9.526;2022-09-01T12:26:13;3.20;;;2.90;;
18804;SDS011;9530;48.930;9.526;2022-09-01T12:28:41;3.47;;;3.00;;
18804;SDS011;9530;48.930;9.526;2022-09-01T12:31:12;4.53;;;3.03;;
18804;SDS011;9530;48.930;9.526;2022-09-01T12:33:41;3.03;;;2.80;;
18804;SDS011;9530;48.930;9.526;2022-09-01T12:36:17;4.10;;;2.60;;
18804;SDS011;9530;48.930;9.526;2022-09-01T12:38:46;4.10;;;2.77;;
18804;SDS011;9530;48.930;9.526;2022-09-01T12:41:26;2.40;;;2.20;;
18804;SDS011;9530;48.930;9.526;2022-09-01T12:46:55;2.87;;;2.37;;
18804;SDS011;9530;48.930;9.526;2022-09-01T12:49:25;2.70;;;2.50;;
18804;SDS011;9530;48.930;9.526;2022-09-01T12:52:09;4.30;;;2.20;;
18804;SDS011;9530;48.930;9.526;2022-09-01T12:54:39;3.83;;;2.17;;
18804;SDS011;9530;48.930;9.526;2022-09-01T12:57:06;2.53;;;2.30;;
18804;SDS011;9530;48.930;9.526;2022-09-01T12:59:33;2.37;;;2.17;;
18804;SDS011;9530;48.930;9.526;2022-09-01T13:04:52;4.07;;;2.50;;
18804;SDS011;9530;48.930;9.526;2022-09-01T13:07:19;2.80;;;2.43;;
18804;SDS011;9530;48.930;9.526;2022-09-01T13:09:45;3.30;;;2.40;;
18804;SDS011;9530;48.930;9.526;2022-09-01T13:12:16;3.13;;;2.30;;
18804;SDS011;9530;48.930;9.526;2022-09-01T13:14:45;2.23;;;2.03;;
18804;SDS011;9530;48.930;9.526;2022-09-01T13:17:11;4.43;;;2.27;;
18804;SDS011;9530;48.930;9.526;2022-09-01T13:19:40;2.67;;;2.40;;
18804;SDS011;9530;48.930;9.526;2022-09-01T13:22:07;2.33;;;2.13;;
18804;SDS011;9530;48.930;9.526;2022-09-01T13:24:34;2.57;;;2.20;;
18804;SDS011;9530;48.930;9.526;2022-09-01T13:27:00;3.63;;;2.20;;
18804;SDS011;9530;48.930;9.526;2022-09-01T13:29:27;3.40;;;2.70;;
18804;SDS011;9530;48.930;9.526;2022-09-01T13:31:54;3.70;;;2.07;;
18804;SDS011;9530;48.930;9.526;2022-09-01T13:34:21;2.33;;;2.03;;
18804;SDS011;9530;48.930;9.526;2022-09-01T13:36:49;3.40;;;2.30;;
18804;SDS011;9530;48.930;9.526;2022-09-01T13:39:16;3.33;;;2.00;;
18804;SDS011;9530;48.930;9.526;2022-09-01T13:41:42;2.73;;;2.20;;
18804;SDS011;9530;48.930;9.526;2022-09-01T13:44:11;2.43;;;2.20;;
18804;SDS011;9530;48.930;9.526;2022-09-01T13:46:37;4.00;;;2.27;;
18804;SDS011;9530;48.930;9.526;2022-09-01T13:49:05;3.77;;;2.43;;
18804;SDS011;9530;48.930;9.526;2022-09-01T13:51:32;5.73;;;2.60;;
18804;SDS011;9530;48.930;9.526;2022-09-01T13:54:00;2.87;;;2.27;;
18804;SDS011;9530;48.930;9.526;2022-09-01T13:56:27;4.03;;;1.90;;
18804;SDS011;9530;48.930;9.526;2022-09-01T13:58:53;3.90;;;2.37;;
18804;SDS011;9530;48.930;9.526;2022-09-01T14:01:20;3.17;;;2.30;;
18804;SDS011;9530;48.930;9.526;2022-09-01T14:03:47;2.67;;;2.20;;
18804;SDS011;9530;48.930;9.526;2022-09-01T14:06:14;2.90;;;2.37;;
18804;SDS011;9530;48.930;9.526;2022-09-01T14:08:41;4.10;;;2.40;;
18804;SDS011;9530;48.930;9.526;2022-09-01T14:11:14;2.70;;;2.37;;
18804;SDS011;9530;48.930;9.526;2022-09-01T14:13:41;2.40;;;2.20;;
18804;SDS011;9530;48.930;9.526;2022-09-01T14:16:09;2.50;;;2.30;;
18804;SDS011;9530;48.930;9.526;2022-09-01T14:18:36;2.73;;;2.30;;
18804;SDS011;9530;48.930;9.526;2022-09-01T14:21:03;5.00;;;2.10;;
18804;SDS011;9530;48.930;9.526;2022-09-01T14:23:30;2.40;;;2.20;;
18804;SDS011;9530;48.930;9.526;2022-09-01T14:25:57;3.60;;;2.30;;
18804;SDS011;9530;48.930;9.526;2022-09-01T14:28:25;2.93;;;2.20;;
18804;SDS011;9530;48.930;9.526;2022-09-01T14:30:52;2.50;;;2.10;;
18804;SDS011;9530;48.930;9.526;2022-09-01T14:33:19;2.80;;;2.43;;
18804;SDS011;9530;48.930;9.526;2022-09-01T14:35:48;2.90;;;2.60;;
18804;SDS011;9530;48.930;9.526;2022-09-01T14:38:15;3.10;;;2.17;;
18804;SDS011;9530;48.930;9.526;2022-09-01T14:40:42;4.37;;;2.53;;
18804;SDS011;9530;48.930;9.526;2022-09-01T14:43:09;4.80;;;2.60;;
18804;SDS011;9530;48.930;9.526;2022-09-01T14:45:39;3.20;;;2.50;;
18804;SDS011;9530;48.930;9.526;2022-09-01T14:48:12;2.57;;;2.33;;
18804;SDS011;9530;48.930;9.526;2022-09-01T14:50:40;3.37;;;2.50;;
18804;SDS011;9530;48.930;9.526;2022-09-01T14:53:08;3.73;;;2.17;;
18804;SDS011;9530;48.930;9.526;2022-09-01T14:55:35;2.93;;;2.50;;
18804;SDS011;9530;48.930;9.526;2022-09-01T14:58:02;2.77;;;2.50;;
18804;SDS011;9530;48.930;9.526;2022-09-01T15:00:29;2.57;;;2.37;;
18804;SDS011;9530;48.930;9.526;2022-09-01T15:03:00;4.13;;;2.50;;
18804;SDS011;9530;48.930;9.526;2022-09-01T15:05:28;2.50;;;2.30;;
18804;SDS011;9530;48.930;9.526;2022-09-01T15:07:55;2.93;;;2.40;;
18804;SDS011;9530;48.930;9.526;2022-09-01T15:10:22;3.37;;;2.53;;
18804;SDS011;9530;48.930;9.526;2022-09-01T15:12:50;4.27;;;2.70;;
18804;SDS011;9530;48.930;9.526;2022-09-01T15:15:17;5.43;;;2.73;;
18804;SDS011;9530;48.930;9.526;2022-09-01T15:17:44;4.77;;;2.60;;
18804;SDS011;9530;48.930;9.526;2022-09-01T15:20:12;4.70;;;2.80;;
18804;SDS011;9530;48.930;9.526;2022-09-01T15:22:56;2.93;;;2.63;;